sensor_id;sensor_type;location;lat;lon;timestamp;temperature;humidity
13332;DHT22;6735;51.456;12.626;2023-03-14T00:02:21;11.00;86.80
13332;DHT22;6735;51.456;12.626;2023-03-14T00:04:47;10.90;86.70
13332;DHT22;6735;51.456;12.626;2023-03-14T00:07:13;10.90;87.10
13332;DHT22;6735;51.456;12.626;2023-03-14T00:09:39;10.90;87.00
13332;DHT22;6735;51.456;12.626;2023-03-14T00:12:05;10.90;87.00
13332;DHT22;6735;51.456;12.626;2023-03-14T00:14:32;10.90;87.10
13332;DHT22;6735;51.456;12.626;2023-03-14T00:16:58;10.90;87.10
13332;DHT22;6735;51.456;12.626;2023-03-14T00:19:23;10.90;87.10
13332;DHT22;6735;51.456;12.626;2023-03-14T00:21:49;10.80;87.20
13332;DHT22;6735;51.456;12.626;2023-03-14T00:24:14;10.80;87.30
13332;DHT22;6735;51.456;12.626;2023-03-14T00:26:40;10.80;87.30
13332;DHT22;6735;51.456;12.626;2023-03-14T00:29:06;10.80;87.20
13332;DHT22;6735;51.456;12.626;2023-03-14T00:31:31;10.80;87.30
13332;DHT22;6735;51.456;12.626;2023-03-14T00:33:57;10.80;87.30
13332;DHT22;6735;51.456;12.626;2023-03-14T00:36:22;10.80;87.20
13332;DHT22;6735;51.456;12.626;2023-03-14T00:38:50;10.80;87.10
13332;DHT22;6735;51.456;12.626;2023-03-14T00:41:18;10.80;87.10
13332;DHT22;6735;51.456;12.626;2023-03-14T00:43:44;10.80;87.20
13332;DHT22;6735;51.456;12.626;2023-03-14T00:46:10;10.80;87.30
13332;DHT22;6735;51.456;12.626;2023-03-14T00:48:35;10.80;87.20
13332;DHT22;6735;51.456;12.626;2023-03-14T00:51:03;10.80;87.10
13332;DHT22;6735;51.456;12.626;2023-03-14T00:53:28;10.80;87.10
13332;DHT22;6735;51.456;12.626;2023-03-14T00:55:54;10.80;87.00
13332;DHT22;6735;51.456;12.626;2023-03-14T00:58:19;10.80;86.70
13332;DHT22;6735;51.456;12.626;2023-03-14T01:00:46;10.90;86.70
13332;DHT22;6735;51.456;12.626;2023-03-14T01:03:12;10.90;86.60
13332;DHT22;6735;51.456;12.626;2023-03-14T01:05:39;10.90;86.50
13332;DHT22;6735;51.456;12.626;2023-03-14T01:08:04;10.90;86.50
13332;DHT22;6735;51.456;12.626;2023-03-14T01:10:32;10.90;86.50
13332;DHT22;6735;51.456;12.626;2023-03-14T01:12:57;10.90;86.40
13332;DHT22;6735;51.456;12.626;2023-03-14T01:15:23;10.90;86.40
13332;DHT22;6735;51.456;12.626;2023-03-14T01:17:48;10.90;86.40
13332;DHT22;6735;51.456;12.626;2023-03-14T01:20:15;10.90;86.30
13332;DHT22;6735;51.456;12.626;2023-03-14T01:22:41;10.90;86.30
13332;DHT22;6735;51.456;12.626;2023-03-14T01:25:09;10.90;86.20
13332;DHT22;6735;51.456;12.626;2023-03-14T01:27:35;10.90;86.10
13332;DHT22;6735;51.456;12.626;2023-03-14T01:30:01;10.90;86.00
13332;DHT22;6735;51.456;12.626;2023-03-14T01:32:27;10.80;86.00
13332;DHT22;6735;51.456;12.626;2023-03-14T01:34:52;10.90;86.00
13332;DHT22;6735;51.456;12.626;2023-03-14T01:37:18;10.90;85.80
13332;DHT22;6735;51.456;12.626;2023-03-14T01:39:43;10.90;85.70
13332;DHT22;6735;51.456;12.626;2023-03-14T01:42:09;10.90;85.60
13332;DHT22;6735;51.456;12.626;2023-03-14T01:44:56;10.90;85.50
13332;DHT22;6735;51.456;12.626;2023-03-14T01:47:22;10.80;85.40
13332;DHT22;6735;51.456;12.626;2023-03-14T01:49:55;10.80;85.30
13332;DHT22;6735;51.456;12.626;2023-03-14T01:52:46;10.80;85.20
13332;DHT22;6735;51.456;12.626;2023-03-14T01:55:16;10.90;85.10
13332;DHT22;6735;51.456;12.626;2023-03-14T01:57:46;10.80;85.00
13332;DHT22;6735;51.456;12.626;2023-03-14T02:00:17;10.80;84.90
13332;DHT22;6735;51.456;12.626;2023-03-14T02:02:46;10.80;84.90
13332;DHT22;6735;51.456;12.626;2023-03-14T02:05:15;10.80;84.90
13332;DHT22;6735;51.456;12.626;2023-03-14T02:07:47;10.80;84.90
13332;DHT22;6735;51.456;12.626;2023-03-14T02:10:16;10.80;84.80
13332;DHT22;6735;51.456;12.626;2023-03-14T02:12:48;10.80;84.80
13332;DHT22;6735;51.456;12.626;2023-03-14T02:15:14;10.80;84.70
13332;DHT22;6735;51.456;12.626;2023-03-14T02:17:41;10.80;84.60
13332;DHT22;6735;51.456;12.626;2023-03-14T02:22:37;10.70;84.60
13332;DHT22;6735;51.456;12.626;2023-03-14T02:25:12;10.70;84.70
13332;DHT22;6735;51.456;12.626;2023-03-14T02:27:39;10.70;84.60
13332;DHT22;6735;51.456;12.626;2023-03-14T02:30:10;10.60;84.70
13332;DHT22;6735;51.456;12.626;2023-03-14T02:32:38;10.60;84.60
13332;DHT22;6735;51.456;12.626;2023-03-14T02:35:08;10.50;84.70
13332;DHT22;6735;51.456;12.626;2023-03-14T02:37:46;10.60;84.70
13332;DHT22;6735;51.456;12.626;2023-03-14T02:40:13;10.50;84.60
13332;DHT22;6735;51.456;12.626;2023-03-14T02:42:38;10.50;84.50
13332;DHT22;6735;51.456;12.626;2023-03-14T02:47:45;10.40;84.70
13332;DHT22;6735;51.456;12.626;2023-03-14T02:50:18;10.40;84.80
13332;DHT22;6735;51.456;12.626;2023-03-14T02:52:45;10.40;84.70
13332;DHT22;6735;51.456;12.626;2023-03-14T02:55:10;10.30;84.70
13332;DHT22;6735;51.456;12.626;2023-03-14T02:57:36;10.30;84.70
13332;DHT22;6735;51.456;12.626;2023-03-14T03:00:02;10.30;84.80
13332;DHT22;6735;51.456;12.626;2023-03-14T03:02:31;10.30;84.70
13332;DHT22;6735;51.456;12.626;2023-03-14T03:04:57;10.30;84.60
13332;DHT22;6735;51.456;12.626;2023-03-14T03:07:23;10.30;84.40
13332;DHT22;6735;51.456;12.626;2023-03-14T03:09:49;10.30;84.40
13332;DHT22;6735;51.456;12.626;2023-03-14T03:12:14;10.20;84.50
13332;DHT22;6735;51.456;12.626;2023-03-14T03:14:40;10.20;84.50
13332;DHT22;6735;51.456;12.626;2023-03-14T03:17:06;10.20;84.50
13332;DHT22;6735;51.456;12.626;2023-03-14T03:19:32;10.20;84.50
13332;DHT22;6735;51.456;12.626;2023-03-14T03:21:58;10.10;84.60
13332;DHT22;6735;51.456;12.626;2023-03-14T03:24:24;10.10;84.60
13332;DHT22;6735;51.456;12.626;2023-03-14T03:26:50;10.10;84.60
13332;DHT22;6735;51.456;12.626;2023-03-14T03:29:16;10.00;84.70
13332;DHT22;6735;51.456;12.626;2023-03-14T03:31:41;10.10;84.60
13332;DHT22;6735;51.456;12.626;2023-03-14T03:34:07;10.10;84.60
13332;DHT22;6735;51.456;12.626;2023-03-14T03:36:33;10.10;84.60
13332;DHT22;6735;51.456;12.626;2023-03-14T03:38:59;10.10;84.50
13332;DHT22;6735;51.456;12.626;2023-03-14T03:41:24;10.10;84.50
13332;DHT22;6735;51.456;12.626;2023-03-14T03:43:50;10.20;84.40
13332;DHT22;6735;51.456;12.626;2023-03-14T03:46:15;10.10;84.30
13332;DHT22;6735;51.456;12.626;2023-03-14T03:48:41;10.20;84.00
13332;DHT22;6735;51.456;12.626;2023-03-14T03:51:06;10.20;83.80
13332;DHT22;6735;51.456;12.626;2023-03-14T03:53:32;10.20;83.70
13332;DHT22;6735;51.456;12.626;2023-03-14T03:55:57;10.20;83.60
13332;DHT22;6735;51.456;12.626;2023-03-14T03:58:23;10.20;83.60
13332;DHT22;6735;51.456;12.626;2023-03-14T04:00:48;10.20;83.50
13332;DHT22;6735;51.456;12.626;2023-03-14T04:03:14;10.10;83.40
13332;DHT22;6735;51.456;12.626;2023-03-14T04:05:39;10.20;83.30
13332;DHT22;6735;51.456;12.626;2023-03-14T04:08:05;10.20;83.10
13332;DHT22;6735;51.456;12.626;2023-03-14T04:10:34;10.20;83.10
13332;DHT22;6735;51.456;12.626;2023-03-14T04:13:00;10.10;83.10
13332;DHT22;6735;51.456;12.626;2023-03-14T04:15:25;10.10;82.90
13332;DHT22;6735;51.456;12.626;2023-03-14T04:17:51;10.10;83.00
13332;DHT22;6735;51.456;12.626;2023-03-14T04:20:16;10.10;83.00
13332;DHT22;6735;51.456;12.626;2023-03-14T04:22:42;10.00;83.10
13332;DHT22;6735;51.456;12.626;2023-03-14T04:25:07;9.90;83.10
13332;DHT22;6735;51.456;12.626;2023-03-14T04:27:33;10.00;83.20
13332;DHT22;6735;51.456;12.626;2023-03-14T04:29:58;9.90;83.30
13332;DHT22;6735;51.456;12.626;2023-03-14T04:32:24;9.90;83.40
13332;DHT22;6735;51.456;12.626;2023-03-14T04:34:49;9.80;83.40
13332;DHT22;6735;51.456;12.626;2023-03-14T04:37:15;9.80;83.50
13332;DHT22;6735;51.456;12.626;2023-03-14T04:39:40;9.80;83.50
13332;DHT22;6735;51.456;12.626;2023-03-14T04:42:06;9.70;83.60
13332;DHT22;6735;51.456;12.626;2023-03-14T04:44:31;9.70;83.70
13332;DHT22;6735;51.456;12.626;2023-03-14T04:46:57;9.70;83.80
13332;DHT22;6735;51.456;12.626;2023-03-14T04:49:22;9.70;83.90
13332;DHT22;6735;51.456;12.626;2023-03-14T04:51:48;9.80;83.90
13332;DHT22;6735;51.456;12.626;2023-03-14T04:54:16;9.90;83.90
13332;DHT22;6735;51.456;12.626;2023-03-14T04:56:41;9.90;83.80
13332;DHT22;6735;51.456;12.626;2023-03-14T04:59:07;10.00;83.80
13332;DHT22;6735;51.456;12.626;2023-03-14T05:01:33;10.00;83.70
13332;DHT22;6735;51.456;12.626;2023-03-14T05:03:59;10.00;83.60
13332;DHT22;6735;51.456;12.626;2023-03-14T05:06:24;10.10;83.60
13332;DHT22;6735;51.456;12.626;2023-03-14T05:08:49;10.20;83.60
13332;DHT22;6735;51.456;12.626;2023-03-14T05:11:15;10.10;83.40
13332;DHT22;6735;51.456;12.626;2023-03-14T05:13:40;10.20;83.40
13332;DHT22;6735;51.456;12.626;2023-03-14T05:16:07;10.10;83.50
13332;DHT22;6735;51.456;12.626;2023-03-14T05:18:33;10.10;83.60
13332;DHT22;6735;51.456;12.626;2023-03-14T05:20:59;10.10;83.60
13332;DHT22;6735;51.456;12.626;2023-03-14T05:23:24;10.10;83.60
13332;DHT22;6735;51.456;12.626;2023-03-14T05:25:50;10.00;83.60
13332;DHT22;6735;51.456;12.626;2023-03-14T05:28:15;10.00;83.50
13332;DHT22;6735;51.456;12.626;2023-03-14T05:30:41;9.90;83.50
13332;DHT22;6735;51.456;12.626;2023-03-14T05:33:06;9.90;83.50
13332;DHT22;6735;51.456;12.626;2023-03-14T05:35:33;9.90;83.50
13332;DHT22;6735;51.456;12.626;2023-03-14T05:37:59;9.90;83.50
13332;DHT22;6735;51.456;12.626;2023-03-14T05:40:24;9.80;83.50
13332;DHT22;6735;51.456;12.626;2023-03-14T05:42:50;9.80;83.60
13332;DHT22;6735;51.456;12.626;2023-03-14T05:45:15;9.80;83.50
13332;DHT22;6735;51.456;12.626;2023-03-14T05:47:41;9.70;83.60
13332;DHT22;6735;51.456;12.626;2023-03-14T05:50:06;9.70;83.60
13332;DHT22;6735;51.456;12.626;2023-03-14T05:52:32;9.70;83.60
13332;DHT22;6735;51.456;12.626;2023-03-14T05:54:58;9.70;83.70
13332;DHT22;6735;51.456;12.626;2023-03-14T05:57:23;9.70;83.70
13332;DHT22;6735;51.456;12.626;2023-03-14T05:59:48;9.70;83.80
13332;DHT22;6735;51.456;12.626;2023-03-14T06:02:14;9.70;83.80
13332;DHT22;6735;51.456;12.626;2023-03-14T06:04:39;9.70;83.80
13332;DHT22;6735;51.456;12.626;2023-03-14T06:07:05;9.70;83.80
13332;DHT22;6735;51.456;12.626;2023-03-14T06:09:30;9.70;83.90
13332;DHT22;6735;51.456;12.626;2023-03-14T06:11:56;9.70;84.00
13332;DHT22;6735;51.456;12.626;2023-03-14T06:14:21;9.70;83.90
13332;DHT22;6735;51.456;12.626;2023-03-14T06:16:47;9.80;84.00
13332;DHT22;6735;51.456;12.626;2023-03-14T06:19:14;9.80;84.00
13332;DHT22;6735;51.456;12.626;2023-03-14T06:21:40;9.80;83.90
13332;DHT22;6735;51.456;12.626;2023-03-14T06:24:05;9.80;83.90
13332;DHT22;6735;51.456;12.626;2023-03-14T06:26:31;10.00;83.80
13332;DHT22;6735;51.456;12.626;2023-03-14T06:28:56;10.00;83.70
13332;DHT22;6735;51.456;12.626;2023-03-14T06:31:22;10.00;83.50
13332;DHT22;6735;51.456;12.626;2023-03-14T06:33:47;10.00;83.40
13332;DHT22;6735;51.456;12.626;2023-03-14T06:36:13;10.10;83.30
13332;DHT22;6735;51.456;12.626;2023-03-14T06:38:38;10.10;83.10
13332;DHT22;6735;51.456;12.626;2023-03-14T06:41:07;10.10;82.90
13332;DHT22;6735;51.456;12.626;2023-03-14T06:43:33;10.20;82.80
13332;DHT22;6735;51.456;12.626;2023-03-14T06:45:59;10.20;82.60
13332;DHT22;6735;51.456;12.626;2023-03-14T06:48:24;10.20;82.50
13332;DHT22;6735;51.456;12.626;2023-03-14T06:50:50;10.20;82.50
13332;DHT22;6735;51.456;12.626;2023-03-14T06:53:15;10.30;82.50
13332;DHT22;6735;51.456;12.626;2023-03-14T06:55:41;10.30;82.50
13332;DHT22;6735;51.456;12.626;2023-03-14T06:58:06;10.30;82.40
13332;DHT22;6735;51.456;12.626;2023-03-14T07:00:33;10.30;82.50
13332;DHT22;6735;51.456;12.626;2023-03-14T07:02:59;10.30;82.50
13332;DHT22;6735;51.456;12.626;2023-03-14T07:05:24;10.40;82.40
13332;DHT22;6735;51.456;12.626;2023-03-14T07:07:50;10.40;82.20
13332;DHT22;6735;51.456;12.626;2023-03-14T07:10:15;10.50;82.10
13332;DHT22;6735;51.456;12.626;2023-03-14T07:12:41;10.50;81.80
13332;DHT22;6735;51.456;12.626;2023-03-14T07:15:07;10.60;81.50
13332;DHT22;6735;51.456;12.626;2023-03-14T07:17:32;10.60;81.50
13332;DHT22;6735;51.456;12.626;2023-03-14T07:19:58;10.60;81.20
13332;DHT22;6735;51.456;12.626;2023-03-14T07:22:24;10.70;81.10
13332;DHT22;6735;51.456;12.626;2023-03-14T07:24:50;10.70;80.80
13332;DHT22;6735;51.456;12.626;2023-03-14T07:27:15;10.90;80.50
13332;DHT22;6735;51.456;12.626;2023-03-14T07:29:41;11.00;80.40
13332;DHT22;6735;51.456;12.626;2023-03-14T07:32:06;11.10;80.00
13332;DHT22;6735;51.456;12.626;2023-03-14T07:34:33;11.20;79.50
13332;DHT22;6735;51.456;12.626;2023-03-14T07:36:58;11.20;79.10
13332;DHT22;6735;51.456;12.626;2023-03-14T07:39:24;11.30;78.80
13332;DHT22;6735;51.456;12.626;2023-03-14T07:41:49;11.40;78.50
13332;DHT22;6735;51.456;12.626;2023-03-14T07:44:15;11.40;78.20
13332;DHT22;6735;51.456;12.626;2023-03-14T07:46:40;11.50;77.90
13332;DHT22;6735;51.456;12.626;2023-03-14T07:49:06;11.70;77.80
13332;DHT22;6735;51.456;12.626;2023-03-14T07:51:31;11.70;77.70
13332;DHT22;6735;51.456;12.626;2023-03-14T07:53:57;11.80;77.20
13332;DHT22;6735;51.456;12.626;2023-03-14T07:56:22;11.90;77.50
13332;DHT22;6735;51.456;12.626;2023-03-14T07:58:47;12.10;77.30
13332;DHT22;6735;51.456;12.626;2023-03-14T08:01:14;12.30;77.00
13332;DHT22;6735;51.456;12.626;2023-03-14T08:03:39;12.50;75.90
13332;DHT22;6735;51.456;12.626;2023-03-14T08:06:05;12.80;76.50
13332;DHT22;6735;51.456;12.626;2023-03-14T08:08:30;13.30;74.70
13332;DHT22;6735;51.456;12.626;2023-03-14T08:10:56;13.70;73.80
13332;DHT22;6735;51.456;12.626;2023-03-14T08:13:21;13.70;73.30
13332;DHT22;6735;51.456;12.626;2023-03-14T08:15:48;13.60;73.80
13332;DHT22;6735;51.456;12.626;2023-03-14T08:18:14;13.40;73.50
13332;DHT22;6735;51.456;12.626;2023-03-14T08:20:40;13.40;73.00
13332;DHT22;6735;51.456;12.626;2023-03-14T08:23:05;13.20;73.40
13332;DHT22;6735;51.456;12.626;2023-03-14T08:25:31;13.10;73.90
13332;DHT22;6735;51.456;12.626;2023-03-14T08:27:57;13.10;73.20
13332;DHT22;6735;51.456;12.626;2023-03-14T08:30:23;13.20;73.50
13332;DHT22;6735;51.456;12.626;2023-03-14T08:32:49;13.20;73.30
13332;DHT22;6735;51.456;12.626;2023-03-14T08:35:15;13.20;73.10
13332;DHT22;6735;51.456;12.626;2023-03-14T08:37:40;13.20;73.10
13332;DHT22;6735;51.456;12.626;2023-03-14T08:40:07;13.20;72.70
13332;DHT22;6735;51.456;12.626;2023-03-14T08:42:38;13.30;72.40
13332;DHT22;6735;51.456;12.626;2023-03-14T08:45:04;13.30;72.20
13332;DHT22;6735;51.456;12.626;2023-03-14T08:47:29;13.40;71.60
13332;DHT22;6735;51.456;12.626;2023-03-14T08:49:55;13.40;71.70
13332;DHT22;6735;51.456;12.626;2023-03-14T08:52:21;13.40;71.50
13332;DHT22;6735;51.456;12.626;2023-03-14T08:54:46;13.40;71.20
13332;DHT22;6735;51.456;12.626;2023-03-14T08:57:12;13.40;70.90
13332;DHT22;6735;51.456;12.626;2023-03-14T08:59:37;13.40;70.50
13332;DHT22;6735;51.456;12.626;2023-03-14T09:02:03;13.50;69.70
13332;DHT22;6735;51.456;12.626;2023-03-14T09:04:30;13.50;70.10
13332;DHT22;6735;51.456;12.626;2023-03-14T09:06:55;13.50;69.30
13332;DHT22;6735;51.456;12.626;2023-03-14T09:09:23;13.60;69.70
13332;DHT22;6735;51.456;12.626;2023-03-14T09:11:49;13.70;69.80
13332;DHT22;6735;51.456;12.626;2023-03-14T09:14:14;13.60;69.60
13332;DHT22;6735;51.456;12.626;2023-03-14T09:16:40;13.60;69.70
13332;DHT22;6735;51.456;12.626;2023-03-14T09:19:06;13.60;68.80
13332;DHT22;6735;51.456;12.626;2023-03-14T09:21:31;13.70;69.50
13332;DHT22;6735;51.456;12.626;2023-03-14T09:23:57;13.70;68.60
13332;DHT22;6735;51.456;12.626;2023-03-14T09:26:22;13.80;68.90
13332;DHT22;6735;51.456;12.626;2023-03-14T09:28:48;14.00;68.70
13332;DHT22;6735;51.456;12.626;2023-03-14T09:31:14;14.10;67.60
13332;DHT22;6735;51.456;12.626;2023-03-14T09:33:40;14.20;67.50
13332;DHT22;6735;51.456;12.626;2023-03-14T09:36:06;14.30;67.40
13332;DHT22;6735;51.456;12.626;2023-03-14T09:38:32;14.20;66.90
13332;DHT22;6735;51.456;12.626;2023-03-14T09:40:59;14.30;67.10
13332;DHT22;6735;51.456;12.626;2023-03-14T09:43:27;14.20;66.00
13332;DHT22;6735;51.456;12.626;2023-03-14T09:45:53;14.20;66.20
13332;DHT22;6735;51.456;12.626;2023-03-14T09:48:26;14.20;66.10
13332;DHT22;6735;51.456;12.626;2023-03-14T09:50:54;14.20;65.40
13332;DHT22;6735;51.456;12.626;2023-03-14T09:53:27;14.20;66.00
13332;DHT22;6735;51.456;12.626;2023-03-14T09:55:54;14.20;66.40
13332;DHT22;6735;51.456;12.626;2023-03-14T09:58:24;14.10;65.80
13332;DHT22;6735;51.456;12.626;2023-03-14T10:00:51;14.20;66.10
13332;DHT22;6735;51.456;12.626;2023-03-14T10:03:31;14.20;66.40
13332;DHT22;6735;51.456;12.626;2023-03-14T10:05:58;14.30;66.00
13332;DHT22;6735;51.456;12.626;2023-03-14T10:08:23;14.30;65.70
13332;DHT22;6735;51.456;12.626;2023-03-14T10:10:49;14.20;66.20
13332;DHT22;6735;51.456;12.626;2023-03-14T10:13:26;14.20;66.60
13332;DHT22;6735;51.456;12.626;2023-03-14T10:16:00;14.10;66.10
13332;DHT22;6735;51.456;12.626;2023-03-14T10:18:29;14.10;65.90
13332;DHT22;6735;51.456;12.626;2023-03-14T10:21:26;14.10;66.10
13332;DHT22;6735;51.456;12.626;2023-03-14T10:23:52;14.00;65.00
13332;DHT22;6735;51.456;12.626;2023-03-14T10:26:24;14.00;66.10
13332;DHT22;6735;51.456;12.626;2023-03-14T10:28:53;14.10;65.90
13332;DHT22;6735;51.456;12.626;2023-03-14T10:31:19;14.10;65.30
13332;DHT22;6735;51.456;12.626;2023-03-14T10:34:03;14.10;65.60
13332;DHT22;6735;51.456;12.626;2023-03-14T10:36:31;14.10;65.50
13332;DHT22;6735;51.456;12.626;2023-03-14T10:38:58;14.10;65.10
13332;DHT22;6735;51.456;12.626;2023-03-14T10:41:50;14.00;65.00
13332;DHT22;6735;51.456;12.626;2023-03-14T10:44:21;13.90;65.10
13332;DHT22;6735;51.456;12.626;2023-03-14T10:46:56;13.80;65.20
13332;DHT22;6735;51.456;12.626;2023-03-14T10:49:29;13.70;65.70
13332;DHT22;6735;51.456;12.626;2023-03-14T10:51:54;13.70;66.40
13332;DHT22;6735;51.456;12.626;2023-03-14T10:54:22;13.60;66.80
13332;DHT22;6735;51.456;12.626;2023-03-14T10:57:00;13.70;67.40
13332;DHT22;6735;51.456;12.626;2023-03-14T10:59:32;13.70;67.40
13332;DHT22;6735;51.456;12.626;2023-03-14T11:02:04;13.90;66.60
13332;DHT22;6735;51.456;12.626;2023-03-14T11:07:21;14.10;65.00
13332;DHT22;6735;51.456;12.626;2023-03-14T11:12:41;14.10;64.30
13332;DHT22;6735;51.456;12.626;2023-03-14T11:15:19;14.10;64.60
13332;DHT22;6735;51.456;12.626;2023-03-14T11:23:22;13.90;64.40
13332;DHT22;6735;51.456;12.626;2023-03-14T11:26:25;13.90;65.00
13332;DHT22;6735;51.456;12.626;2023-03-14T11:28:58;14.00;64.50
13332;DHT22;6735;51.456;12.626;2023-03-14T11:31:28;14.00;64.70
13332;DHT22;6735;51.456;12.626;2023-03-14T11:34:08;14.00;64.60
13332;DHT22;6735;51.456;12.626;2023-03-14T11:36:46;14.00;65.00
13332;DHT22;6735;51.456;12.626;2023-03-14T11:39:17;14.00;64.50
13332;DHT22;6735;51.456;12.626;2023-03-14T11:41:53;14.10;64.80
13332;DHT22;6735;51.456;12.626;2023-03-14T11:44:30;14.20;64.30
13332;DHT22;6735;51.456;12.626;2023-03-14T11:47:09;14.40;64.50
13332;DHT22;6735;51.456;12.626;2023-03-14T11:49:42;14.50;64.30
13332;DHT22;6735;51.456;12.626;2023-03-14T11:54:50;14.50;64.40
13332;DHT22;6735;51.456;12.626;2023-03-14T11:57:19;14.50;64.40
13332;DHT22;6735;51.456;12.626;2023-03-14T11:59:58;14.40;64.70
13332;DHT22;6735;51.456;12.626;2023-03-14T12:08:19;14.10;67.60
13332;DHT22;6735;51.456;12.626;2023-03-14T12:10:55;14.20;68.50
13332;DHT22;6735;51.456;12.626;2023-03-14T12:13:37;14.10;69.50
13332;DHT22;6735;51.456;12.626;2023-03-14T12:16:06;14.20;69.00
13332;DHT22;6735;51.456;12.626;2023-03-14T12:18:35;14.10;69.40
13332;DHT22;6735;51.456;12.626;2023-03-14T12:21:07;14.20;68.40
13332;DHT22;6735;51.456;12.626;2023-03-14T12:23:52;14.10;68.80
13332;DHT22;6735;51.456;12.626;2023-03-14T12:26:22;14.00;69.10
13332;DHT22;6735;51.456;12.626;2023-03-14T12:45:26;13.80;70.20
13332;DHT22;6735;51.456;12.626;2023-03-14T12:50:24;13.80;70.00
13332;DHT22;6735;51.456;12.626;2023-03-14T12:53:20;13.80;70.10
13332;DHT22;6735;51.456;12.626;2023-03-14T12:56:26;13.80;70.40
13332;DHT22;6735;51.456;12.626;2023-03-14T12:59:28;14.10;71.20
13332;DHT22;6735;51.456;12.626;2023-03-14T13:01:59;14.50;70.90
13332;DHT22;6735;51.456;12.626;2023-03-14T13:04:36;14.80;70.50
13332;DHT22;6735;51.456;12.626;2023-03-14T13:07:13;15.00;69.60
13332;DHT22;6735;51.456;12.626;2023-03-14T13:10:00;15.10;69.30
13332;DHT22;6735;51.456;12.626;2023-03-14T13:12:29;15.10;68.80
13332;DHT22;6735;51.456;12.626;2023-03-14T13:14:59;15.10;68.40
13332;DHT22;6735;51.456;12.626;2023-03-14T13:17:33;14.90;67.50
13332;DHT22;6735;51.456;12.626;2023-03-14T13:20:05;14.90;67.80
13332;DHT22;6735;51.456;12.626;2023-03-14T13:22:35;14.90;67.70
13332;DHT22;6735;51.456;12.626;2023-03-14T13:25:05;14.80;67.40
13332;DHT22;6735;51.456;12.626;2023-03-14T13:27:34;14.80;67.40
13332;DHT22;6735;51.456;12.626;2023-03-14T13:32:42;14.70;67.50
13332;DHT22;6735;51.456;12.626;2023-03-14T13:35:27;14.70;67.70
13332;DHT22;6735;51.456;12.626;2023-03-14T13:37:58;14.70;67.10
13332;DHT22;6735;51.456;12.626;2023-03-14T13:40:28;14.60;67.10
13332;DHT22;6735;51.456;12.626;2023-03-14T13:43:18;14.60;67.00
13332;DHT22;6735;51.456;12.626;2023-03-14T13:46:04;14.50;65.70
13332;DHT22;6735;51.456;12.626;2023-03-14T13:48:33;14.60;66.70
13332;DHT22;6735;51.456;12.626;2023-03-14T13:51:03;14.60;65.60
13332;DHT22;6735;51.456;12.626;2023-03-14T13:53:29;14.70;64.90
13332;DHT22;6735;51.456;12.626;2023-03-14T13:55:55;14.90;65.10
13332;DHT22;6735;51.456;12.626;2023-03-14T13:58:26;15.00;64.20
13332;DHT22;6735;51.456;12.626;2023-03-14T14:01:16;15.00;63.40
13332;DHT22;6735;51.456;12.626;2023-03-14T14:03:44;15.10;63.80
13332;DHT22;6735;51.456;12.626;2023-03-14T14:08:48;15.40;62.60
13332;DHT22;6735;51.456;12.626;2023-03-14T14:11:32;15.50;63.70
13332;DHT22;6735;51.456;12.626;2023-03-14T14:14:00;15.30;64.00
13332;DHT22;6735;51.456;12.626;2023-03-14T14:16:28;15.30;63.70
13332;DHT22;6735;51.456;12.626;2023-03-14T14:18:56;15.20;62.80
13332;DHT22;6735;51.456;12.626;2023-03-14T14:21:22;15.20;61.90
13332;DHT22;6735;51.456;12.626;2023-03-14T14:23:48;15.10;61.60
13332;DHT22;6735;51.456;12.626;2023-03-14T14:26:17;15.00;62.30
13332;DHT22;6735;51.456;12.626;2023-03-14T14:28:44;15.00;61.60
13332;DHT22;6735;51.456;12.626;2023-03-14T14:33:45;14.90;61.80
13332;DHT22;6735;51.456;12.626;2023-03-14T14:36:17;14.90;61.80
13332;DHT22;6735;51.456;12.626;2023-03-14T14:38:49;14.90;62.10
13332;DHT22;6735;51.456;12.626;2023-03-14T14:41:15;14.90;61.90
13332;DHT22;6735;51.456;12.626;2023-03-14T14:43:41;14.80;61.50
13332;DHT22;6735;51.456;12.626;2023-03-14T14:46:08;14.70;61.30
13332;DHT22;6735;51.456;12.626;2023-03-14T14:48:37;14.60;62.10
13332;DHT22;6735;51.456;12.626;2023-03-14T14:51:06;14.60;61.90
13332;DHT22;6735;51.456;12.626;2023-03-14T14:53:40;14.60;62.10
13332;DHT22;6735;51.456;12.626;2023-03-14T14:56:15;14.50;61.90
13332;DHT22;6735;51.456;12.626;2023-03-14T14:58:45;14.50;62.10
13332;DHT22;6735;51.456;12.626;2023-03-14T15:01:23;14.40;62.30
13332;DHT22;6735;51.456;12.626;2023-03-14T15:03:50;14.40;62.80
13332;DHT22;6735;51.456;12.626;2023-03-14T15:06:17;14.40;63.20
13332;DHT22;6735;51.456;12.626;2023-03-14T15:08:44;14.30;63.40
13332;DHT22;6735;51.456;12.626;2023-03-14T15:11:16;14.30;64.00
13332;DHT22;6735;51.456;12.626;2023-03-14T15:13:42;14.20;65.30
13332;DHT22;6735;51.456;12.626;2023-03-14T15:16:10;13.40;66.70
13332;DHT22;6735;51.456;12.626;2023-03-14T15:18:36;12.20;70.60
13332;DHT22;6735;51.456;12.626;2023-03-14T15:21:02;11.20;75.30
13332;DHT22;6735;51.456;12.626;2023-03-14T15:23:27;10.50;78.20
13332;DHT22;6735;51.456;12.626;2023-03-14T15:25:53;10.00;79.40
13332;DHT22;6735;51.456;12.626;2023-03-14T15:28:21;9.70;81.10
13332;DHT22;6735;51.456;12.626;2023-03-14T15:30:58;9.40;82.00
13332;DHT22;6735;51.456;12.626;2023-03-14T15:33:24;9.40;81.60
13332;DHT22;6735;51.456;12.626;2023-03-14T15:35:51;9.30;82.90
13332;DHT22;6735;51.456;12.626;2023-03-14T15:38:19;9.10;83.40
13332;DHT22;6735;51.456;12.626;2023-03-14T15:40:51;9.10;83.70
13332;DHT22;6735;51.456;12.626;2023-03-14T15:43:17;8.80;83.70
13332;DHT22;6735;51.456;12.626;2023-03-14T15:45:43;8.70;84.30
13332;DHT22;6735;51.456;12.626;2023-03-14T15:48:17;8.60;84.90
13332;DHT22;6735;51.456;12.626;2023-03-14T15:50:44;8.50;84.70
13332;DHT22;6735;51.456;12.626;2023-03-14T15:53:10;8.40;84.60
13332;DHT22;6735;51.456;12.626;2023-03-14T15:55:36;8.30;84.20
13332;DHT22;6735;51.456;12.626;2023-03-14T15:58:01;8.20;84.50
13332;DHT22;6735;51.456;12.626;2023-03-14T16:00:28;7.90;84.10
13332;DHT22;6735;51.456;12.626;2023-03-14T16:02:54;7.80;84.30
13332;DHT22;6735;51.456;12.626;2023-03-14T16:05:19;7.50;83.60
13332;DHT22;6735;51.456;12.626;2023-03-14T16:07:46;7.40;83.40
13332;DHT22;6735;51.456;12.626;2023-03-14T16:10:13;7.10;82.90
13332;DHT22;6735;51.456;12.626;2023-03-14T16:12:38;6.70;83.10
13332;DHT22;6735;51.456;12.626;2023-03-14T16:15:04;6.60;84.10
13332;DHT22;6735;51.456;12.626;2023-03-14T16:17:31;6.40;83.70
13332;DHT22;6735;51.456;12.626;2023-03-14T16:19:57;6.30;84.20
13332;DHT22;6735;51.456;12.626;2023-03-14T16:22:23;6.20;84.30
13332;DHT22;6735;51.456;12.626;2023-03-14T16:24:48;6.10;84.60
13332;DHT22;6735;51.456;12.626;2023-03-14T16:27:14;6.00;84.90
13332;DHT22;6735;51.456;12.626;2023-03-14T16:29:41;5.90;84.70
13332;DHT22;6735;51.456;12.626;2023-03-14T16:32:07;5.80;85.60